createdAt,value
2019-05-10T00:00:13.296Z,4.97
2019-05-10T00:02:59.246Z,5.57
2019-05-10T00:05:45.642Z,5.40
2019-05-10T00:08:31.618Z,5.20
2019-05-10T00:11:07.560Z,5.53
2019-05-10T00:13:50.029Z,4.83
2019-05-10T00:16:18.486Z,5.10
2019-05-10T00:18:46.928Z,5.00
2019-05-10T00:21:15.430Z,6.57
2019-05-10T00:23:43.870Z,6.00
2019-05-10T00:26:12.311Z,5.70
2019-05-10T00:28:40.786Z,5.60
2019-05-10T00:31:09.237Z,5.83
2019-05-10T00:33:37.807Z,5.53
2019-05-10T00:36:06.367Z,5.67
2019-05-10T00:38:34.814Z,6.10
2019-05-10T00:41:03.411Z,5.30
2019-05-10T00:43:31.848Z,6.00
2019-05-10T00:46:00.433Z,5.33
2019-05-10T00:48:29.070Z,6.30
2019-05-10T00:50:57.505Z,5.57
2019-05-10T00:53:26.127Z,6.30
2019-05-10T00:55:54.636Z,6.87
2019-05-10T00:58:23.094Z,6.33
2019-05-10T01:00:51.549Z,6.27
2019-05-10T01:03:19.986Z,6.07
2019-05-10T01:05:48.538Z,6.00
2019-05-10T01:08:17.055Z,6.00
2019-05-10T01:10:45.558Z,6.13
2019-05-10T01:13:14.190Z,5.27
2019-05-10T01:15:46.589Z,6.67
2019-05-10T01:18:13.784Z,5.70
2019-05-10T01:20:42.290Z,5.90
2019-05-10T01:23:10.787Z,6.50
2019-05-10T01:25:39.210Z,6.40
2019-05-10T01:28:07.706Z,6.10
2019-05-10T01:30:36.169Z,6.13
2019-05-10T01:33:04.605Z,6.23
2019-05-10T01:35:33.050Z,7.30
2019-05-10T01:38:01.806Z,6.97
2019-05-10T01:40:30.253Z,6.13
2019-05-10T01:42:58.690Z,6.93
2019-05-10T01:45:27.246Z,7.10
2019-05-10T01:47:55.780Z,7.13
2019-05-10T01:50:24.287Z,7.77
2019-05-10T01:52:52.768Z,7.87
2019-05-10T01:55:21.318Z,7.63
2019-05-10T01:57:49.886Z,8.27
2019-05-10T02:00:19.092Z,8.07
2019-05-10T02:02:47.595Z,8.53
2019-05-10T02:05:16.445Z,9.03
2019-05-10T02:07:44.887Z,8.70
2019-05-10T02:10:13.407Z,8.90
2019-05-10T02:12:41.931Z,9.00
2019-05-10T02:15:10.370Z,9.87
2019-05-10T02:17:38.834Z,9.70
2019-05-10T02:20:07.278Z,10.20
2019-05-10T02:22:35.734Z,10.17
2019-05-10T02:25:05.840Z,10.30
2019-05-10T02:27:34.287Z,10.43
2019-05-10T02:30:02.768Z,10.70
2019-05-10T02:32:31.345Z,9.83
2019-05-10T02:34:59.789Z,10.40
2019-05-10T02:37:28.286Z,9.57
2019-05-10T02:39:56.738Z,11.00
2019-05-10T02:42:25.195Z,9.63
2019-05-10T02:44:53.694Z,10.77
2019-05-10T02:47:22.123Z,9.93
2019-05-10T02:49:50.560Z,10.87
2019-05-10T02:52:19.038Z,11.07
2019-05-10T02:54:47.591Z,10.10
2019-05-10T02:57:16.037Z,10.57
2019-05-10T02:59:44.487Z,10.83
2019-05-10T03:02:13.114Z,11.07
2019-05-10T03:04:41.573Z,13.63
2019-05-10T03:07:10.044Z,14.20
2019-05-10T03:09:38.495Z,12.60
2019-05-10T03:12:16.242Z,12.97
2019-05-10T03:14:44.724Z,13.03
2019-05-10T03:17:13.272Z,14.57
2019-05-10T03:19:41.739Z,14.63
2019-05-10T03:22:10.237Z,14.60
2019-05-10T03:24:38.727Z,14.43
2019-05-10T03:27:07.199Z,19.53
2019-05-10T03:29:35.713Z,18.47
2019-05-10T03:32:04.220Z,18.20
2019-05-10T03:34:32.732Z,17.37
2019-05-10T03:37:01.234Z,19.37
2019-05-10T03:39:29.855Z,21.50
2019-05-10T03:41:58.385Z,24.33
2019-05-10T03:44:26.891Z,24.80
2019-05-10T03:46:55.460Z,21.90
2019-05-10T03:49:23.903Z,22.23
2019-05-10T03:51:52.348Z,24.93
2019-05-10T03:54:20.848Z,23.90
2019-05-10T03:56:49.292Z,24.23
2019-05-10T03:59:17.722Z,23.13
2019-05-10T04:01:46.229Z,25.13
2019-05-10T04:04:14.667Z,21.80
2019-05-10T04:06:43.107Z,19.60
2019-05-10T04:09:11.591Z,20.07
2019-05-10T04:11:40.101Z,23.60
2019-05-10T04:14:08.551Z,23.53
2019-05-10T04:16:37.100Z,28.53
2019-05-10T04:19:05.536Z,25.03
2019-05-10T04:21:33.997Z,28.63
2019-05-10T04:24:02.578Z,28.07
2019-05-10T04:26:30.998Z,25.03
2019-05-10T04:28:59.463Z,20.40
2019-05-10T04:31:27.943Z,21.73
2019-05-10T04:33:56.407Z,23.53
2019-05-10T04:36:24.850Z,22.87
2019-05-10T04:38:53.413Z,23.20
2019-05-10T04:41:21.968Z,22.73
2019-05-10T04:43:50.424Z,24.23
2019-05-10T04:46:18.871Z,21.37
2019-05-10T04:48:47.347Z,20.83
2019-05-10T04:51:15.810Z,24.27
2019-05-10T04:53:44.311Z,21.83
2019-05-10T04:56:12.812Z,22.50
2019-05-10T04:58:41.290Z,26.43
2019-05-10T05:01:09.758Z,26.33
2019-05-10T05:03:38.205Z,24.93
2019-05-10T05:06:06.689Z,24.07
2019-05-10T05:08:35.235Z,27.57
2019-05-10T05:11:03.743Z,25.13
2019-05-10T05:13:32.191Z,21.63
2019-05-10T05:16:00.622Z,23.40
2019-05-10T05:18:29.178Z,21.47
2019-05-10T05:20:57.628Z,22.67
2019-05-10T05:23:26.107Z,23.93
2019-05-10T05:25:54.711Z,20.80
2019-05-10T05:28:24.661Z,20.73
2019-05-10T05:30:53.318Z,21.30
2019-05-10T05:33:21.872Z,21.27
2019-05-10T05:35:50.315Z,23.17
2019-05-10T05:38:18.814Z,19.97
2019-05-10T05:40:47.333Z,23.13
2019-05-10T05:43:15.770Z,20.30
2019-05-10T05:45:44.367Z,23.07
2019-05-10T05:48:16.196Z,22.97
2019-05-10T05:50:42.908Z,21.37
2019-05-10T05:53:11.390Z,18.83
2019-05-10T05:55:39.862Z,23.83
2019-05-10T05:58:25.230Z,22.80
2019-05-10T06:00:44.862Z,20.97
2019-05-10T06:03:08.652Z,21.60
2019-05-10T06:05:37.483Z,21.00
2019-05-10T06:08:21.473Z,19.80
2019-05-10T06:10:36.230Z,21.30
2019-05-10T06:13:04.669Z,23.63
2019-05-10T06:15:33.147Z,24.33
2019-05-10T06:18:03.519Z,25.50
2019-05-10T06:20:31.761Z,27.20
2019-05-10T06:23:06.419Z,27.13
2019-05-10T06:25:39.295Z,28.10
2019-05-10T06:28:00.526Z,24.83
2019-05-10T06:30:29.083Z,26.97
2019-05-10T06:33:00.991Z,31.20
2019-05-10T06:35:27.731Z,25.53
2019-05-10T06:37:56.223Z,27.40
2019-05-10T06:40:36.001Z,26.43
2019-05-10T06:42:55.100Z,27.10
2019-05-10T06:45:23.638Z,26.70
2019-05-10T06:47:53.398Z,24.17
2019-05-10T06:50:29.251Z,24.10
2019-05-10T06:52:52.359Z,26.50
2019-05-10T06:55:20.951Z,23.97
2019-05-10T06:57:50.481Z,24.30
2019-05-10T07:00:19.756Z,23.73
2019-05-10T07:02:48.165Z,26.33
2019-05-10T07:05:16.650Z,25.57
2019-05-10T07:07:45.669Z,22.43
2019-05-10T07:10:19.212Z,27.00
2019-05-10T07:12:45.445Z,26.53
2019-05-10T07:15:14.225Z,25.03
2019-05-10T07:17:47.011Z,26.40
2019-05-10T07:20:12.875Z,24.67
2019-05-10T07:22:41.338Z,27.93
2019-05-10T07:25:09.983Z,29.57
2019-05-10T07:27:38.891Z,28.53
2019-05-10T07:30:07.629Z,25.53
2019-05-10T07:32:36.154Z,24.90
2019-05-10T07:35:05.951Z,25.03
2019-05-10T07:37:35.076Z,25.13
2019-05-10T07:40:05.562Z,23.30
2019-05-10T07:42:34.122Z,24.57
2019-05-10T07:45:02.814Z,25.17
2019-05-10T07:47:32.632Z,24.37
2019-05-10T07:50:03.935Z,26.57
2019-05-10T07:52:36.557Z,26.83
2019-05-10T07:55:01.623Z,29.23
2019-05-10T07:57:30.318Z,30.03
2019-05-10T08:00:03.647Z,28.17
2019-05-10T08:02:29.149Z,27.90
2019-05-10T08:04:58.433Z,27.93
2019-05-10T08:07:29.228Z,25.07
2019-05-10T08:09:59.463Z,25.47
2019-05-10T08:12:29.337Z,36.50
2019-05-10T08:14:59.029Z,26.30
2019-05-10T08:17:28.709Z,29.17
2019-05-10T08:19:57.346Z,24.20
2019-05-10T08:22:25.761Z,24.43
2019-05-10T08:24:56.313Z,23.10
2019-05-10T08:27:24.466Z,23.27
2019-05-10T08:30:15.818Z,24.00
2019-05-10T08:32:25.529Z,23.43
2019-05-10T08:34:55.921Z,24.07
2019-05-10T08:37:30.928Z,23.47
2019-05-10T08:39:55.930Z,20.87
2019-05-10T08:42:40.186Z,20.80
2019-05-10T08:45:03.664Z,20.67
2019-05-10T08:47:27.634Z,20.30
2019-05-10T08:50:09.572Z,20.50
2019-05-10T08:52:30.856Z,22.37
2019-05-10T08:54:55.352Z,18.20
2019-05-10T08:57:23.871Z,18.70
2019-05-10T08:59:54.159Z,16.63
2019-05-10T09:02:28.864Z,15.87
2019-05-10T09:04:53.084Z,15.97
2019-05-10T09:07:23.279Z,14.10
2019-05-10T09:09:53.093Z,15.40
2019-05-10T09:12:23.057Z,15.87
2019-05-10T09:14:57.646Z,14.57
2019-05-10T09:17:28.160Z,13.63
2019-05-10T09:19:53.530Z,12.77
2019-05-10T09:22:25.891Z,14.40
2019-05-10T09:24:53.200Z,14.70
2019-05-10T09:27:22.477Z,15.20
2019-05-10T09:29:52.897Z,11.37
2019-05-10T09:32:28.611Z,11.43
2019-05-10T09:34:54.011Z,13.17
2019-05-10T09:37:22.866Z,12.37
2019-05-10T09:39:54.872Z,12.40
2019-05-10T09:42:26.762Z,12.17
2019-05-10T09:44:52.672Z,12.53
2019-05-10T09:47:22.198Z,9.83
2019-05-10T09:49:54.209Z,10.33
2019-05-10T09:52:21.109Z,8.43
2019-05-10T09:54:49.720Z,9.00
2019-05-10T09:57:18.277Z,9.77
2019-05-10T09:59:47.107Z,8.83
2019-05-10T10:02:18.618Z,9.23
2019-05-10T10:04:47.362Z,7.77
2019-05-10T10:07:18.726Z,8.20
2019-05-10T10:09:47.739Z,6.63
2019-05-10T10:12:17.581Z,6.60
2019-05-10T10:14:47.242Z,6.67
2019-05-10T10:17:18.360Z,6.30
2019-05-10T10:19:48.056Z,6.67
2019-05-10T10:22:17.403Z,5.53
2019-05-10T10:24:49.125Z,5.33
2019-05-10T10:27:17.218Z,4.77
2019-05-10T10:29:47.446Z,3.90
2019-05-10T10:32:15.962Z,4.10
2019-05-10T10:34:44.471Z,4.63
2019-05-10T10:37:14.716Z,4.50
2019-05-10T10:39:43.037Z,4.90
2019-05-10T10:42:13.221Z,4.77
2019-05-10T10:44:41.848Z,4.80
2019-05-10T10:47:10.330Z,5.60
2019-05-10T10:49:38.786Z,4.00
2019-05-10T10:52:11.386Z,3.70
2019-05-10T10:54:39.814Z,3.90
2019-05-10T10:57:08.024Z,3.57
2019-05-10T10:59:37.351Z,3.63
2019-05-10T11:02:29.027Z,4.67
2019-05-10T11:04:40.450Z,5.10
2019-05-10T11:07:10.382Z,5.23
2019-05-10T11:09:36.632Z,7.07
2019-05-10T11:12:05.466Z,4.90
2019-05-10T11:14:40.044Z,5.97
2019-05-10T11:17:04.130Z,4.93
2019-05-10T11:19:32.596Z,4.63
2019-05-10T11:22:02.251Z,5.27
2019-05-10T11:24:31.346Z,4.70
2019-05-10T11:27:01.089Z,4.60
2019-05-10T11:29:30.868Z,4.10
2019-05-10T11:32:14.411Z,3.77
2019-05-10T11:34:37.578Z,3.70
2019-05-10T11:36:59.722Z,3.80
2019-05-10T11:39:33.263Z,4.40
2019-05-10T11:42:02.266Z,4.57
2019-05-10T11:44:28.522Z,3.93
2019-05-10T11:46:56.970Z,5.00
2019-05-10T11:49:25.439Z,6.30
2019-05-10T11:51:58.583Z,5.37
2019-05-10T11:54:24.313Z,4.27
2019-05-10T11:56:58.476Z,4.07
2019-05-10T11:59:27.399Z,4.60
2019-05-10T12:01:57.839Z,4.47
2019-05-10T12:04:33.082Z,3.87
2019-05-10T12:06:53.860Z,3.40
2019-05-10T12:09:24.473Z,4.10
2019-05-10T12:11:56.444Z,3.70
2019-05-10T12:14:22.837Z,3.60
2019-05-10T12:16:54.631Z,3.77
2019-05-10T12:19:21.663Z,3.60
2019-05-10T12:21:52.625Z,3.43
2019-05-10T12:24:33.413Z,3.40
2019-05-10T12:29:21.298Z,3.77
2019-05-10T12:31:53.366Z,4.07
2019-05-10T12:34:20.694Z,3.73
2019-05-10T12:36:51.735Z,3.70
2019-05-10T12:39:21.431Z,3.67
2019-05-10T12:41:52.249Z,3.53
2019-05-10T12:44:19.746Z,3.50
2019-05-10T12:46:51.007Z,2.97
2019-05-10T12:49:18.503Z,3.17
2019-05-10T12:51:46.999Z,3.37
2019-05-10T12:54:18.460Z,3.80
2019-05-10T12:56:46.250Z,3.40
2019-05-10T12:59:14.902Z,3.23
2019-05-10T13:01:43.419Z,2.80
2019-05-10T13:04:14.676Z,3.20
2019-05-10T13:06:42.022Z,3.20
2019-05-10T13:09:10.472Z,3.30
2019-05-10T13:11:39.056Z,3.40
2019-05-10T13:14:09.540Z,2.90
2019-05-10T13:16:38.003Z,3.07
2019-05-10T13:19:06.611Z,3.33
2019-05-10T13:21:35.131Z,3.47
2019-05-10T13:24:03.632Z,2.90
2019-05-10T13:26:32.331Z,2.70
2019-05-10T13:29:02.174Z,2.80
2019-05-10T13:31:30.918Z,2.73
2019-05-10T13:33:59.399Z,2.80
2019-05-10T13:36:30.818Z,2.40
2019-05-10T13:38:58.412Z,2.33
2019-05-10T13:41:26.873Z,2.20
2019-05-10T13:43:58.894Z,2.40
2019-05-10T13:46:25.541Z,2.17
2019-05-10T13:48:54.032Z,2.67
2019-05-10T13:51:22.470Z,2.67
2019-05-10T13:53:53.844Z,2.30
2019-05-10T13:56:22.408Z,2.10
2019-05-10T13:58:51.309Z,2.50
2019-05-10T14:01:20.002Z,2.47
2019-05-10T14:04:00.370Z,2.50
2019-05-10T14:06:19.155Z,2.50
2019-05-10T14:08:48.590Z,2.70
2019-05-10T14:11:17.899Z,2.20
2019-05-10T14:13:46.448Z,1.97
2019-05-10T14:16:19.663Z,2.10
2019-05-10T14:18:45.431Z,3.20
2019-05-10T14:21:13.829Z,2.27
2019-05-10T14:23:42.337Z,4.60
2019-05-10T14:26:15.951Z,2.60
2019-05-10T14:28:41.223Z,2.23
2019-05-10T14:31:10.130Z,3.27
2019-05-10T14:33:38.698Z,1.90
2019-05-10T14:36:07.182Z,3.20
2019-05-10T14:38:35.717Z,6.57
2019-05-10T14:41:11.104Z,5.30
2019-05-10T14:43:34.642Z,6.50
2019-05-10T14:46:03.593Z,6.23
2019-05-10T14:48:35.454Z,5.53
2019-05-10T14:51:09.866Z,3.70
2019-05-10T14:53:32.902Z,2.40
2019-05-10T14:56:01.585Z,2.30
2019-05-10T14:58:30.399Z,2.50
2019-05-10T15:00:58.844Z,2.20
2019-05-10T15:03:27.284Z,2.00
2019-05-10T15:06:00.990Z,2.37
2019-05-10T15:08:26.001Z,2.47
2019-05-10T15:10:57.422Z,1.97
2019-05-10T15:13:28.320Z,2.10
2019-05-10T15:15:56.316Z,2.50
2019-05-10T15:18:24.941Z,2.30
2019-05-10T15:20:53.420Z,2.10
2019-05-10T15:23:21.968Z,2.37
2019-05-10T15:25:57.119Z,2.40
2019-05-10T15:28:20.718Z,2.00
2019-05-10T15:30:52.353Z,2.33
2019-05-10T15:33:19.615Z,2.73
2019-05-10T15:35:51.985Z,2.40
2019-05-10T15:38:18.495Z,1.60
2019-05-10T15:40:47.084Z,2.77
2019-05-10T15:43:16.820Z,2.37
2019-05-10T15:45:51.886Z,1.90
2019-05-10T15:48:16.158Z,2.37
2019-05-10T15:50:44.851Z,2.10
2019-05-10T15:53:13.788Z,1.70
2019-05-10T15:55:42.932Z,1.60
2019-05-10T15:58:14.667Z,1.50
2019-05-10T16:00:43.238Z,2.80
2019-05-10T16:03:11.937Z,3.27
2019-05-10T16:05:43.893Z,11.50
2019-05-10T16:08:13.653Z,11.47
2019-05-10T16:10:41.164Z,12.10
2019-05-10T16:13:14.541Z,11.40
2019-05-10T16:15:40.142Z,12.13
2019-05-10T16:18:08.850Z,14.60
2019-05-10T16:20:38.912Z,11.80
2019-05-10T16:23:08.907Z,13.03
2019-05-10T16:25:41.523Z,13.23
2019-05-10T16:28:08.114Z,17.50
2019-05-10T16:30:36.746Z,14.60
2019-05-10T16:33:16.095Z,20.00
2019-05-10T16:35:49.482Z,17.70
2019-05-10T16:38:15.349Z,17.13
2019-05-10T16:40:44.617Z,15.73
2019-05-10T16:43:16.173Z,20.33
2019-05-10T16:45:43.536Z,16.23
2019-05-10T16:48:12.078Z,17.33
2019-05-10T16:50:40.733Z,15.23
2019-05-10T16:53:09.705Z,16.00
2019-05-10T16:55:40.773Z,15.43
2019-05-10T16:58:14.422Z,15.13
2019-05-10T17:00:40.850Z,15.60
2019-05-10T17:03:13.081Z,16.70
2019-05-10T17:05:52.653Z,17.57
2019-05-10T17:08:13.407Z,15.60
2019-05-10T17:10:42.449Z,18.03
2019-05-10T17:13:11.634Z,14.77
2019-05-10T17:15:41.733Z,13.63
2019-05-10T17:18:16.673Z,13.20
2019-05-10T17:20:45.465Z,13.60
2019-05-10T17:23:11.383Z,13.07
2019-05-10T17:25:40.608Z,13.80
2019-05-10T17:28:09.680Z,13.17
2019-05-10T17:30:38.214Z,12.43
2019-05-10T17:33:06.784Z,14.13
2019-05-10T17:35:36.601Z,13.17
2019-05-10T17:38:08.032Z,14.10
2019-05-10T17:40:35.963Z,14.17
2019-05-10T17:43:04.730Z,15.77
2019-05-10T17:45:34.700Z,15.33
2019-05-10T17:48:08.270Z,14.53
2019-05-10T17:50:33.996Z,19.80
2019-05-10T17:53:02.548Z,14.90
2019-05-10T17:55:31.584Z,15.40
2019-05-10T17:58:00.146Z,14.40
2019-05-10T18:00:28.739Z,14.60
2019-05-10T18:02:57.413Z,19.03
2019-05-10T18:05:26.074Z,17.83
2019-05-10T18:07:54.636Z,15.37
2019-05-10T18:10:23.463Z,17.33
2019-05-10T18:12:57.278Z,15.67
2019-05-10T18:15:22.043Z,12.90
2019-05-10T18:17:50.548Z,14.43
2019-05-10T18:20:18.989Z,13.80
2019-05-10T18:22:47.450Z,15.50
2019-05-10T18:25:20.409Z,15.73
2019-05-10T18:27:46.190Z,15.70
2019-05-10T18:30:14.834Z,17.90
2019-05-10T18:32:43.546Z,15.03
2019-05-10T18:35:14.902Z,15.17
2019-05-10T18:37:42.202Z,22.57
2019-05-10T18:40:10.811Z,21.67
2019-05-10T18:42:40.644Z,17.80
2019-05-10T18:45:09.325Z,14.70
2019-05-10T18:47:37.870Z,16.83
2019-05-10T18:50:06.502Z,22.13
2019-05-10T18:52:35.332Z,24.37
2019-05-10T18:55:04.847Z,14.97
2019-05-10T18:57:33.335Z,13.17
2019-05-10T19:00:02.093Z,13.27
2019-05-10T19:02:30.699Z,13.20
2019-05-10T19:04:59.265Z,13.20
2019-05-10T19:07:27.765Z,13.27
2019-05-10T19:09:56.227Z,13.23
2019-05-10T19:12:25.080Z,12.57
2019-05-10T19:14:53.963Z,11.60
2019-05-10T19:17:22.619Z,13.50
2019-05-10T19:19:51.253Z,13.80
2019-05-10T19:22:19.859Z,12.27
2019-05-10T19:24:48.416Z,11.37
2019-05-10T19:27:17.027Z,13.77
2019-05-10T19:29:47.795Z,13.30
2019-05-10T19:32:18.236Z,12.80
2019-05-10T19:34:48.452Z,11.70
2019-05-10T19:37:27.949Z,12.10
2019-05-10T19:39:46.347Z,12.27
2019-05-10T19:42:14.884Z,11.83
2019-05-10T19:44:43.339Z,11.67
2019-05-10T19:47:17.816Z,12.13
2019-05-10T19:49:45.977Z,12.77
2019-05-10T19:52:12.082Z,12.67
2019-05-10T19:54:40.566Z,12.87
2019-05-10T19:57:16.181Z,14.23
2019-05-10T19:59:43.928Z,11.57
2019-05-10T20:02:09.682Z,12.33
2019-05-10T20:04:38.305Z,12.97
2019-05-10T20:07:06.735Z,12.50
2019-05-10T20:09:35.182Z,12.17
2019-05-10T20:12:03.724Z,11.50
2019-05-10T20:14:32.172Z,11.43
2019-05-10T20:17:00.642Z,12.10
2019-05-10T20:19:29.140Z,11.73
2019-05-10T20:21:57.632Z,10.83
2019-05-10T20:24:26.087Z,11.80
2019-05-10T20:26:54.572Z,10.63
2019-05-10T20:29:23.082Z,10.80
2019-05-10T20:31:51.554Z,11.80
2019-05-10T20:34:23.894Z,12.33
2019-05-10T20:36:50.170Z,12.20
2019-05-10T20:39:18.722Z,11.87
2019-05-10T20:41:47.196Z,12.70
2019-05-10T20:44:15.707Z,13.33
2019-05-10T20:46:44.214Z,13.50
2019-05-10T20:49:12.662Z,13.93
2019-05-10T20:51:41.144Z,14.03
2019-05-10T20:54:09.599Z,13.80
2019-05-10T20:56:38.127Z,13.27
2019-05-10T20:59:06.659Z,14.43
2019-05-10T21:01:36.855Z,13.63
2019-05-10T21:04:06.306Z,14.73
2019-05-10T21:06:34.774Z,15.03
2019-05-10T21:09:03.654Z,13.93
2019-05-10T21:11:32.173Z,15.17
2019-05-10T21:14:00.630Z,15.07
2019-05-10T21:16:29.166Z,14.47
2019-05-10T21:18:57.616Z,14.17
2019-05-10T21:21:26.204Z,14.37
2019-05-10T21:23:54.851Z,14.77
2019-05-10T21:26:23.298Z,15.43
2019-05-10T21:28:51.807Z,13.90
2019-05-10T21:31:20.236Z,14.13
2019-05-10T21:33:48.736Z,16.77
2019-05-10T21:36:17.215Z,15.37
2019-05-10T21:38:45.680Z,14.80
2019-05-10T21:41:14.151Z,16.10
2019-05-10T21:43:42.702Z,16.83
2019-05-10T21:46:11.186Z,16.30
2019-05-10T21:48:39.645Z,16.33
2019-05-10T21:51:08.237Z,15.93
2019-05-10T21:53:36.730Z,16.50
2019-05-10T21:56:05.333Z,17.07
2019-05-10T21:58:33.826Z,16.90
2019-05-10T22:01:02.438Z,16.73
2019-05-10T22:03:31.016Z,16.43
2019-05-10T22:05:59.507Z,16.47
2019-05-10T22:08:27.945Z,16.73
2019-05-10T22:10:56.404Z,18.60
2019-05-10T22:13:24.909Z,22.07
2019-05-10T22:15:53.421Z,17.77
2019-05-10T22:18:21.889Z,15.67
2019-05-10T22:20:50.383Z,17.37
2019-05-10T22:23:18.845Z,17.73
2019-05-10T22:25:47.294Z,16.90
2019-05-10T22:28:15.797Z,17.43
2019-05-10T22:30:44.756Z,16.97
2019-05-10T22:33:13.194Z,16.90
2019-05-10T22:35:41.672Z,17.43
2019-05-10T22:38:10.421Z,17.63
2019-05-10T22:40:38.858Z,17.33
2019-05-10T22:43:07.410Z,18.47
2019-05-10T22:45:35.890Z,19.10
2019-05-10T22:48:04.466Z,17.13
2019-05-10T22:50:33.051Z,17.30
2019-05-10T22:53:01.563Z,17.63
2019-05-10T22:55:30.106Z,17.50
2019-05-10T22:57:58.521Z,17.67
2019-05-10T23:00:27.008Z,17.83
2019-05-10T23:02:55.590Z,18.27
2019-05-10T23:05:24.187Z,17.50
2019-05-10T23:07:52.654Z,17.33
2019-05-10T23:10:21.206Z,17.07
2019-05-10T23:12:49.652Z,17.17
2019-05-10T23:15:18.272Z,17.47
2019-05-10T23:17:46.724Z,17.97
2019-05-10T23:20:15.186Z,17.50
2019-05-10T23:22:43.717Z,17.77
2019-05-10T23:25:12.241Z,17.30
2019-05-10T23:27:40.763Z,17.80
2019-05-10T23:30:09.380Z,18.10
2019-05-10T23:32:37.822Z,18.27
2019-05-10T23:35:06.884Z,16.73
2019-05-10T23:37:35.358Z,17.57
2019-05-10T23:40:07.391Z,17.53
2019-05-10T23:42:36.132Z,16.90
2019-05-10T23:45:06.099Z,17.53
2019-05-10T23:47:34.547Z,17.17
2019-05-10T23:50:03.108Z,18.13
2019-05-10T23:52:31.546Z,17.73
2019-05-10T23:55:00.017Z,17.40
2019-05-10T23:57:28.482Z,17.57
2019-05-10T23:59:57.259Z,17.50
